Terminal Aerodrome Forecast
Issued by NWS Pocatello, ID

Home | Current Version | Previous Version | Text Only | Print | Product List | Glossary On
Versions: 1 2 3 4 5 6 7 8 9 10 11 12 13 14 15 16 17 18 19 20 21 22 23 24 25
000
FTUS45 KPIH 301700
TAFPIH
TAF
KPIH 301734Z 3018/3118 02007KT P6SM BKN070 BKN120
     FM310300 25006KT P6SM SCT004 BKN010
     FM310600 23006KT 3SM BR BKN002 OVC005=

USA.gov is the U.S. government's official web portal to all federal, state and local government web resources and services.